createdAt,value
2018-03-19T00:00:26.112Z,74.07
2018-03-19T00:01:26.097Z,74.45
2018-03-19T00:02:26.106Z,74.55
2018-03-19T00:03:26.119Z,74.83
2018-03-19T00:04:26.123Z,75.02
2018-03-19T00:05:26.135Z,74.92
2018-03-19T00:06:26.129Z,74.92
2018-03-19T00:07:26.147Z,74.74
2018-03-19T00:08:26.151Z,74.74
2018-03-19T00:09:26.155Z,74.64
2018-03-19T00:10:26.166Z,74.83
2018-03-19T00:11:26.175Z,74.55
2018-03-19T00:12:26.174Z,74.74
2018-03-19T00:13:26.179Z,74.74
2018-03-19T00:14:26.210Z,74.45
2018-03-19T00:15:26.196Z,74.36
2018-03-19T00:16:26.222Z,74.26
2018-03-19T00:17:26.206Z,74.45
2018-03-19T00:18:26.211Z,74.92
2018-03-19T00:19:26.224Z,75.11
2018-03-19T00:20:26.228Z,74.45
2018-03-19T00:21:26.236Z,74.92
2018-03-19T00:22:26.238Z,74.92
2018-03-19T00:23:26.243Z,74.45
2018-03-19T00:24:26.254Z,74.64
2018-03-19T00:25:26.260Z,74.74
2018-03-19T00:26:26.269Z,75.11
2018-03-19T00:27:26.279Z,75.21
2018-03-19T00:28:26.275Z,74.92
2018-03-19T00:29:26.287Z,74.74
2018-03-19T00:30:26.298Z,74.74
2018-03-19T00:31:26.305Z,74.55
2018-03-19T00:32:26.310Z,74.17
2018-03-19T00:33:26.307Z,74.83
2018-03-19T00:34:26.319Z,74.74
2018-03-19T00:35:26.327Z,74.36
2018-03-19T00:36:26.339Z,74.26
2018-03-19T00:37:26.593Z,74.45
2018-03-19T00:38:26.338Z,74.17
2018-03-19T00:39:26.350Z,74.45
2018-03-19T00:40:26.359Z,74.26
2018-03-19T00:41:26.367Z,74.07
2018-03-19T00:42:26.382Z,74.92
2018-03-19T00:43:26.370Z,74.83
2018-03-19T00:44:26.380Z,75.21
2018-03-19T00:45:26.390Z,75.30
2018-03-19T00:46:26.399Z,75.64
2018-03-19T00:47:26.560Z,75.49
2018-03-19T00:48:26.403Z,75.30
2018-03-19T00:49:26.413Z,75.54
2018-03-19T00:50:26.425Z,75.45
2018-03-19T00:51:26.433Z,75.26
2018-03-19T00:52:26.438Z,75.59
2018-03-19T00:53:26.435Z,75.54
2018-03-19T00:54:26.446Z,75.64
2018-03-19T00:55:26.455Z,75.36
2018-03-19T00:56:26.464Z,75.36
2018-03-19T00:57:26.474Z,75.73
2018-03-19T00:58:26.467Z,75.64
2018-03-19T00:59:26.475Z,75.17
2018-03-19T01:00:26.489Z,75.54
2018-03-19T01:01:26.493Z,75.49
2018-03-19T01:02:26.502Z,75.64
2018-03-19T01:03:26.516Z,76.21
2018-03-19T01:04:26.511Z,76.30
2018-03-19T01:05:26.521Z,76.30
2018-03-19T01:06:26.528Z,76.11
2018-03-19T01:07:26.538Z,76.02
2018-03-19T01:08:26.544Z,76.02
2018-03-19T01:09:26.539Z,76.02
2018-03-19T01:10:26.552Z,76.11
2018-03-19T01:11:26.556Z,76.11
2018-03-19T01:12:26.568Z,76.02
2018-03-19T01:13:26.566Z,76.68
2018-03-19T01:14:26.573Z,77.53
2018-03-19T01:15:26.580Z,77.06
2018-03-19T01:16:26.589Z,77.06
2018-03-19T01:17:26.602Z,76.96
2018-03-19T01:18:26.597Z,77.25
2018-03-19T01:19:26.606Z,77.44
2018-03-19T01:20:26.616Z,77.81
2018-03-19T01:21:26.620Z,78.28
2018-03-19T01:22:26.639Z,78.28
2018-03-19T01:23:26.629Z,78.47
2018-03-19T01:24:26.639Z,79.03
2018-03-19T01:25:26.643Z,79.03
2018-03-19T01:26:26.656Z,78.66
2018-03-19T01:27:26.661Z,78.85
2018-03-19T01:28:26.661Z,78.94
2018-03-19T01:29:26.670Z,79.13
2018-03-19T01:30:26.676Z,79.41
2018-03-19T01:31:26.691Z,78.75
2018-03-19T01:32:26.697Z,78.66
2018-03-19T01:33:26.689Z,78.94
2018-03-19T01:34:26.698Z,78.75
2018-03-19T01:35:26.707Z,79.13
2018-03-19T01:36:26.717Z,79.22
2018-03-19T01:37:26.714Z,79.41
2018-03-19T01:38:26.720Z,79.50
2018-03-19T01:39:26.729Z,79.98
2018-03-19T01:40:26.739Z,79.79
2018-03-19T01:41:26.748Z,79.88
2018-03-19T01:42:26.750Z,80.26
2018-03-19T01:43:26.753Z,80.07
2018-03-19T01:44:26.766Z,80.26
2018-03-19T01:45:26.778Z,80.54
2018-03-19T01:46:26.780Z,80.36
2018-03-19T01:47:26.776Z,80.45
2018-03-19T01:48:26.788Z,81.11
2018-03-19T01:49:26.796Z,80.64
2018-03-19T01:50:26.803Z,80.92
2018-03-19T01:51:26.815Z,80.92
2018-03-19T01:52:26.807Z,81.30
2018-03-19T01:53:26.816Z,81.58
2018-03-19T01:54:26.837Z,81.49
2018-03-19T01:55:26.839Z,81.77
2018-03-19T01:56:26.847Z,81.49
2018-03-19T01:57:26.839Z,82.06
2018-03-19T01:58:26.849Z,82.15
2018-03-19T01:59:26.856Z,82.06
2018-03-19T02:00:26.872Z,81.49
2018-03-19T02:01:26.863Z,81.40
2018-03-19T02:02:26.871Z,81.58
2018-03-19T02:03:26.882Z,81.58
2018-03-19T02:04:26.889Z,81.49
2018-03-19T02:05:26.891Z,82.24
2018-03-19T02:06:26.899Z,82.24
2018-03-19T02:07:26.906Z,82.43
2018-03-19T02:08:26.911Z,82.24
2018-03-19T02:09:26.921Z,82.90
2018-03-19T02:10:26.920Z,82.71
2018-03-19T02:11:26.934Z,82.53
2018-03-19T02:12:26.938Z,82.90
2018-03-19T02:13:26.948Z,82.90
2018-03-19T02:14:26.946Z,82.71
2018-03-19T02:15:26.951Z,82.90
2018-03-19T02:16:26.962Z,82.53
2018-03-19T02:17:26.968Z,82.71
2018-03-19T02:18:26.977Z,83.18
2018-03-19T02:19:26.980Z,83.09
2018-03-19T02:20:26.984Z,83.09
2018-03-19T02:21:26.990Z,83.09
2018-03-19T02:22:27.003Z,83.00
2018-03-19T02:23:27.001Z,83.47
2018-03-19T02:24:27.006Z,83.28
2018-03-19T02:25:27.013Z,83.18
2018-03-19T02:26:27.023Z,83.00
2018-03-19T02:27:27.035Z,83.47
2018-03-19T02:28:27.028Z,84.13
2018-03-19T02:29:27.040Z,83.84
2018-03-19T02:30:27.046Z,83.56
2018-03-19T02:31:27.055Z,83.84
2018-03-19T02:32:27.053Z,83.09
2018-03-19T02:33:27.063Z,83.84
2018-03-19T02:34:27.069Z,83.94
2018-03-19T02:35:27.081Z,83.94
2018-03-19T02:36:27.078Z,83.84
2018-03-19T02:37:27.084Z,83.75
2018-03-19T02:38:27.105Z,84.13
2018-03-19T02:39:27.104Z,84.22
2018-03-19T02:40:27.112Z,84.41
2018-03-19T02:41:27.105Z,84.03
2018-03-19T02:42:27.122Z,84.13
2018-03-19T02:43:27.138Z,84.88
2018-03-19T02:44:27.134Z,85.07
2018-03-19T02:45:27.134Z,85.17
2018-03-19T02:46:27.137Z,84.98
2018-03-19T02:47:27.149Z,84.88
2018-03-19T02:48:27.160Z,85.07
2018-03-19T02:49:27.153Z,85.26
2018-03-19T02:50:27.164Z,85.17
2018-03-19T02:51:27.171Z,84.79
2018-03-19T02:52:27.179Z,84.98
2018-03-19T02:53:27.191Z,85.26
2018-03-19T02:54:27.187Z,84.88
2018-03-19T02:55:27.212Z,84.79
2018-03-19T02:56:27.205Z,84.98
2018-03-19T02:57:27.214Z,84.79
2018-03-19T02:58:27.207Z,84.98
2018-03-19T02:59:27.216Z,84.98
2018-03-19T03:00:27.226Z,84.60
2018-03-19T03:01:27.237Z,84.88
2018-03-19T03:02:27.230Z,84.79
2018-03-19T03:03:27.242Z,84.88
2018-03-19T03:04:27.255Z,85.07
2018-03-19T03:05:27.261Z,84.98
2018-03-19T03:06:27.259Z,84.69
2018-03-19T03:07:27.263Z,84.88
2018-03-19T03:08:27.274Z,84.79
2018-03-19T03:09:27.282Z,85.26
2018-03-19T03:10:27.278Z,85.54
2018-03-19T03:11:27.285Z,86.02
2018-03-19T03:12:27.293Z,85.73
2018-03-19T03:13:27.308Z,86.40
2018-03-19T03:14:27.303Z,86.30
2018-03-19T03:15:27.312Z,86.02
2018-03-19T03:16:27.318Z,86.02
2018-03-19T03:17:27.326Z,86.40
2018-03-19T03:18:27.335Z,86.21
2018-03-19T03:19:27.330Z,85.83
2018-03-19T03:20:27.339Z,86.49
2018-03-19T03:21:27.350Z,86.40
2018-03-19T03:22:27.361Z,86.49
2018-03-19T03:23:27.369Z,85.83
2018-03-19T03:24:27.363Z,86.11
2018-03-19T03:25:27.374Z,86.49
2018-03-19T03:26:27.384Z,86.40
2018-03-19T03:27:27.376Z,86.11
2018-03-19T03:28:27.387Z,86.30
2018-03-19T03:29:27.396Z,86.87
2018-03-19T03:30:27.408Z,86.96
2018-03-19T03:31:27.402Z,87.15
2018-03-19T03:32:27.409Z,87.81
2018-03-19T03:33:27.417Z,87.81
2018-03-19T03:34:27.433Z,87.71
2018-03-19T03:35:27.424Z,87.43
2018-03-19T03:36:27.433Z,87.43
2018-03-19T03:37:27.444Z,87.43
2018-03-19T03:38:27.450Z,86.96
2018-03-19T03:39:27.447Z,87.15
2018-03-19T03:40:27.459Z,86.77
2018-03-19T03:41:27.468Z,87.15
2018-03-19T03:42:27.472Z,86.77
2018-03-19T03:43:27.470Z,87.05
2018-03-19T03:44:27.477Z,86.68
2018-03-19T03:45:27.492Z,86.77
2018-03-19T03:46:27.496Z,87.05
2018-03-19T03:47:27.493Z,87.05
2018-03-19T03:48:27.501Z,86.96
2018-03-19T03:49:27.510Z,86.96
2018-03-19T03:50:27.520Z,86.49
2018-03-19T03:51:27.520Z,86.87
2018-03-19T03:52:27.523Z,87.62
2018-03-19T03:53:27.533Z,87.34
2018-03-19T03:54:27.547Z,87.43
2018-03-19T03:55:27.540Z,87.24
2018-03-19T03:56:27.550Z,87.05
2018-03-19T03:57:27.555Z,87.34
2018-03-19T03:58:27.576Z,86.96
2018-03-19T03:59:27.570Z,87.05
2018-03-19T04:00:27.574Z,87.43
2018-03-19T04:01:27.580Z,87.52
2018-03-19T04:02:27.588Z,87.62
2018-03-19T04:03:27.586Z,87.43
2018-03-19T04:04:27.597Z,87.34
2018-03-19T04:05:27.604Z,87.81
2018-03-19T04:06:27.611Z,87.24
2018-03-19T04:07:27.608Z,87.15
2018-03-19T04:08:27.618Z,87.52
2018-03-19T04:09:27.624Z,87.43
2018-03-19T04:10:27.633Z,87.81
2018-03-19T04:11:27.631Z,87.62
2018-03-19T04:12:27.638Z,87.81
2018-03-19T04:13:27.649Z,87.99
2018-03-19T04:14:27.659Z,87.52
2018-03-19T04:15:27.655Z,87.71
2018-03-19T04:16:27.662Z,87.81
2018-03-19T04:17:27.671Z,87.43
2018-03-19T04:18:27.680Z,87.52
2018-03-19T04:19:27.690Z,87.62
2018-03-19T04:20:27.697Z,87.52
2018-03-19T04:21:27.695Z,87.62
2018-03-19T04:22:27.703Z,88.09
2018-03-19T04:23:27.700Z,87.99
2018-03-19T04:24:27.712Z,88.37
2018-03-19T04:25:27.717Z,87.71
2018-03-19T04:26:27.729Z,87.90
2018-03-19T04:27:27.722Z,87.43
2018-03-19T04:28:27.734Z,87.43
2018-03-19T04:29:27.753Z,88.28
2018-03-19T04:30:27.753Z,88.18
2018-03-19T04:31:27.747Z,87.81
2018-03-19T04:32:27.755Z,87.71
2018-03-19T04:33:27.764Z,87.99
2018-03-19T04:34:27.775Z,87.90
2018-03-19T04:35:27.773Z,88.47
2018-03-19T04:36:27.777Z,88.37
2018-03-19T04:37:27.791Z,88.52
2018-03-19T04:38:27.798Z,87.95
2018-03-19T04:39:27.804Z,88.89
2018-03-19T04:40:27.801Z,88.61
2018-03-19T04:41:27.810Z,88.71
2018-03-19T04:42:27.818Z,89.08
2018-03-19T04:43:27.819Z,88.99
2018-03-19T04:44:27.832Z,88.89
2018-03-19T04:45:27.837Z,89.22
2018-03-19T04:46:27.841Z,89.46
2018-03-19T04:47:27.839Z,89.32
2018-03-19T04:48:27.846Z,89.65
2018-03-19T04:49:27.856Z,90.26
2018-03-19T04:50:27.867Z,90.03
2018-03-19T04:51:27.861Z,89.56
2018-03-19T04:52:27.870Z,89.56
2018-03-19T04:53:27.891Z,89.65
2018-03-19T04:54:27.876Z,89.65
2018-03-19T04:55:27.885Z,89.74
2018-03-19T04:56:27.893Z,89.56
2018-03-19T04:57:27.902Z,90.03
2018-03-19T04:58:27.903Z,90.69
2018-03-19T04:59:27.910Z,90.22
2018-03-19T05:00:27.918Z,90.88
2018-03-19T05:01:27.928Z,90.97
2018-03-19T05:02:27.922Z,91.06
2018-03-19T05:03:27.958Z,91.16
2018-03-19T05:04:27.939Z,91.06
2018-03-19T05:05:27.949Z,90.41
2018-03-19T05:06:27.946Z,90.50
2018-03-19T05:07:27.954Z,91.06
2018-03-19T05:08:27.966Z,91.16
2018-03-19T05:09:27.976Z,91.53
2018-03-19T05:10:27.972Z,91.44
2018-03-19T05:11:27.977Z,91.25
2018-03-19T05:12:27.985Z,91.63
2018-03-19T05:13:27.986Z,91.16
2018-03-19T05:14:27.998Z,91.53
2018-03-19T05:15:28.013Z,91.63
2018-03-19T05:16:28.009Z,91.72
2018-03-19T05:17:28.009Z,92.00
2018-03-19T05:18:28.013Z,91.72
2018-03-19T05:19:28.026Z,92.47
2018-03-19T05:20:28.030Z,92.00
2018-03-19T05:21:28.027Z,92.19
2018-03-19T05:22:28.038Z,92.38
2018-03-19T05:23:28.045Z,92.38
2018-03-19T05:24:28.058Z,91.72
2018-03-19T05:25:28.053Z,92.29
2018-03-19T05:26:28.060Z,92.29
2018-03-19T05:27:28.072Z,92.19
2018-03-19T05:28:28.078Z,92.19
2018-03-19T05:29:28.074Z,92.38
2018-03-19T05:30:28.083Z,92.29
2018-03-19T05:31:28.099Z,92.29
2018-03-19T05:32:28.101Z,92.38
2018-03-19T05:33:28.097Z,92.47
2018-03-19T05:34:28.105Z,92.10
2018-03-19T05:35:28.118Z,92.19
2018-03-19T05:36:28.127Z,91.91
2018-03-19T05:37:28.119Z,91.72
2018-03-19T05:38:28.132Z,91.72
2018-03-19T05:39:28.137Z,91.72
2018-03-19T05:40:28.139Z,91.82
2018-03-19T05:41:28.154Z,91.72
2018-03-19T05:42:28.152Z,91.82
2018-03-19T05:43:28.163Z,92.47
2018-03-19T05:44:28.160Z,92.29
2018-03-19T05:45:28.170Z,92.29
2018-03-19T05:46:28.179Z,92.47
2018-03-19T05:47:28.182Z,92.00
2018-03-19T05:48:28.184Z,91.91
2018-03-19T05:49:28.194Z,92.38
2018-03-19T05:50:28.197Z,92.00
2018-03-19T05:51:28.211Z,92.10
2018-03-19T05:52:28.207Z,92.57
2018-03-19T05:53:28.212Z,92.00
2018-03-19T05:54:28.221Z,92.29
2018-03-19T05:55:28.243Z,92.19
2018-03-19T05:56:28.229Z,92.10
2018-03-19T05:57:28.235Z,92.47
2018-03-19T05:58:28.244Z,92.10
2018-03-19T05:59:28.253Z,92.76
2018-03-19T06:00:28.249Z,92.76
2018-03-19T06:01:28.263Z,92.19
2018-03-19T06:02:28.272Z,92.66
2018-03-19T06:03:28.277Z,93.04
2018-03-19T06:04:28.276Z,92.66
2018-03-19T06:05:28.281Z,92.95
2018-03-19T06:06:28.294Z,92.47
2018-03-19T06:07:28.302Z,92.57
2018-03-19T06:08:28.301Z,92.57
2018-03-19T06:09:28.305Z,92.29
2018-03-19T06:10:28.345Z,92.57
2018-03-19T06:11:28.329Z,92.29
2018-03-19T06:12:28.323Z,92.38
2018-03-19T06:13:28.328Z,92.57
2018-03-19T06:14:28.343Z,92.95
2018-03-19T06:15:28.345Z,92.29
2018-03-19T06:16:28.357Z,92.47
2018-03-19T06:17:28.366Z,92.47
2018-03-19T06:18:28.358Z,91.96
2018-03-19T06:19:28.370Z,92.29
2018-03-19T06:20:28.365Z,92.52
2018-03-19T06:21:28.374Z,92.05
2018-03-19T06:22:28.383Z,91.96
2018-03-19T06:23:28.392Z,92.43
2018-03-19T06:24:28.389Z,92.52
2018-03-19T06:25:28.396Z,92.43
2018-03-19T06:26:28.410Z,92.05
2018-03-19T06:27:28.413Z,92.14
2018-03-19T06:28:28.421Z,91.67
2018-03-19T06:29:28.419Z,92.43
2018-03-19T06:30:28.435Z,91.77
2018-03-19T06:31:28.446Z,91.77
2018-03-19T06:32:28.446Z,91.77
2018-03-19T06:33:28.442Z,91.86
2018-03-19T06:34:28.456Z,91.39
2018-03-19T06:35:28.459Z,91.86
2018-03-19T06:36:28.474Z,91.77
2018-03-19T06:37:28.466Z,91.02
2018-03-19T06:38:28.474Z,91.02
2018-03-19T06:39:28.485Z,90.73
2018-03-19T06:40:28.505Z,90.55
2018-03-19T06:41:28.494Z,90.17
2018-03-19T06:42:28.496Z,90.26
2018-03-19T06:43:28.511Z,89.69
2018-03-19T06:44:28.516Z,90.07
2018-03-19T06:45:28.540Z,90.17
2018-03-19T06:46:28.520Z,89.22
2018-03-19T06:47:28.529Z,89.22
2018-03-19T06:48:28.542Z,88.28
2018-03-19T06:49:28.551Z,88.47
2018-03-19T06:50:28.560Z,87.90
2018-03-19T06:51:28.552Z,87.71
2018-03-19T06:52:28.561Z,87.62
2018-03-19T06:53:28.570Z,87.71
2018-03-19T06:54:28.581Z,87.90
2018-03-19T06:55:28.593Z,88.56
2018-03-19T06:56:28.588Z,87.90
2018-03-19T06:57:28.593Z,87.24
2018-03-19T06:58:28.605Z,87.15
2018-03-19T06:59:28.615Z,87.15
2018-03-19T07:00:28.652Z,87.15
2018-03-19T07:01:28.616Z,87.15
2018-03-19T07:02:28.630Z,86.77
2018-03-19T07:03:28.634Z,86.77
2018-03-19T07:04:28.642Z,87.05
2018-03-19T07:05:28.644Z,87.43
2018-03-19T07:06:28.676Z,87.43
2018-03-19T07:07:28.661Z,87.24
2018-03-19T07:08:28.670Z,87.15
2018-03-19T07:09:28.674Z,87.52
2018-03-19T07:10:28.675Z,86.68
2018-03-19T07:11:28.707Z,85.73
2018-03-19T07:12:28.690Z,85.83
2018-03-19T07:13:28.702Z,85.64
2018-03-19T07:14:28.711Z,85.87
2018-03-19T07:15:28.716Z,86.06
2018-03-19T07:16:28.712Z,85.87
2018-03-19T07:17:28.725Z,85.49
2018-03-19T07:18:28.735Z,85.30
2018-03-19T07:19:28.742Z,84.74
2018-03-19T07:20:28.756Z,85.02
2018-03-19T07:21:28.749Z,84.64
2018-03-19T07:22:28.761Z,84.64
2018-03-19T07:23:28.762Z,84.74
2018-03-19T07:24:28.775Z,83.70
2018-03-19T07:25:28.784Z,82.95
2018-03-19T07:26:28.789Z,82.38
2018-03-19T07:27:28.789Z,81.72
2018-03-19T07:28:28.793Z,80.96
2018-03-19T07:29:28.804Z,80.68
2018-03-19T07:30:28.816Z,80.06
2018-03-19T07:31:28.824Z,78.83
2018-03-19T07:32:28.829Z,78.27
2018-03-19T07:33:28.843Z,77.42
2018-03-19T07:34:28.864Z,77.51
2018-03-19T07:35:28.847Z,77.42
2018-03-19T07:36:28.857Z,77.32
2018-03-19T07:37:28.864Z,76.95
2018-03-19T07:38:28.869Z,77.04
2018-03-19T07:39:28.879Z,76.19
2018-03-19T07:40:28.889Z,75.71
2018-03-19T07:41:28.897Z,75.62
2018-03-19T07:42:28.896Z,75.81
2018-03-19T07:43:28.901Z,76.09
2018-03-19T07:44:28.910Z,75.90
2018-03-19T07:45:28.920Z,76.00
2018-03-19T07:46:28.932Z,76.19
2018-03-19T07:47:28.937Z,76.47
2018-03-19T07:48:28.950Z,76.28
2018-03-19T07:49:28.955Z,76.28
2018-03-19T07:50:28.965Z,75.71
2018-03-19T07:51:28.975Z,75.05
2018-03-19T07:52:28.981Z,74.77
2018-03-19T07:53:28.982Z,74.68
2018-03-19T07:54:28.992Z,74.96
2018-03-19T07:55:29.000Z,74.21
2018-03-19T07:56:29.009Z,73.74
2018-03-19T07:57:29.013Z,72.79
2018-03-19T07:58:29.028Z,72.32
2018-03-19T07:59:29.033Z,72.32
2018-03-19T08:00:29.044Z,72.41
2018-03-19T08:01:29.049Z,72.51
2018-03-19T08:02:29.047Z,73.07
2018-03-19T08:03:29.055Z,73.45
2018-03-19T08:04:29.067Z,73.45
2018-03-19T08:05:29.072Z,73.74
2018-03-19T08:06:29.085Z,73.74
2018-03-19T08:07:29.091Z,74.30
2018-03-19T08:08:29.102Z,74.11
2018-03-19T08:09:29.108Z,73.17
2018-03-19T08:10:29.121Z,72.32
2018-03-19T08:11:29.130Z,71.94
2018-03-19T08:12:29.135Z,71.66
2018-03-19T08:13:29.131Z,71.94
2018-03-19T08:14:29.179Z,72.13
2018-03-19T08:15:29.150Z,71.94
2018-03-19T08:16:29.158Z,71.28
2018-03-19T08:17:29.168Z,71.37
2018-03-19T08:18:29.176Z,70.72
2018-03-19T08:19:29.183Z,70.81
2018-03-19T08:20:29.198Z,71.09
2018-03-19T08:21:29.203Z,70.72
2018-03-19T08:22:29.211Z,70.72
2018-03-19T08:23:29.222Z,70.53
2018-03-19T08:24:29.234Z,70.15
2018-03-19T08:25:29.229Z,69.58
2018-03-19T08:26:29.238Z,69.77
2018-03-19T08:27:29.250Z,69.96
2018-03-19T08:28:29.254Z,69.20
2018-03-19T08:29:29.261Z,68.76
2018-03-19T08:30:29.271Z,68.44
2018-03-19T08:31:29.278Z,68.73
2018-03-19T08:32:29.289Z,68.48
2018-03-19T08:33:29.305Z,68.76
2018-03-19T08:34:29.306Z,68.48
2018-03-19T08:35:29.315Z,68.76
2018-03-19T08:36:29.327Z,68.67
2018-03-19T08:37:29.333Z,68.39
2018-03-19T08:38:29.344Z,68.39
2018-03-19T08:39:29.392Z,68.76
2018-03-19T08:40:29.355Z,68.29
2018-03-19T08:41:29.359Z,68.29
2018-03-19T08:42:29.364Z,68.48
2018-03-19T08:43:29.374Z,68.48
2018-03-19T08:44:29.382Z,67.82
2018-03-19T08:45:29.407Z,68.10
2018-03-19T08:46:29.403Z,68.39
2018-03-19T08:47:29.424Z,68.29
2018-03-19T08:48:29.417Z,67.82
2018-03-19T08:49:29.428Z,68.29
2018-03-19T08:50:29.436Z,68.48
2018-03-19T08:51:29.445Z,68.67
2018-03-19T08:52:29.452Z,68.76
2018-03-19T08:53:29.460Z,68.57
2018-03-19T08:54:29.471Z,67.35
2018-03-19T08:55:29.516Z,66.88
2018-03-19T08:56:29.488Z,66.59
2018-03-19T08:57:29.497Z,66.31
2018-03-19T08:58:29.507Z,66.31
2018-03-19T08:59:29.519Z,65.93
2018-03-19T09:00:29.527Z,65.93
2018-03-19T09:01:29.537Z,65.46
2018-03-19T09:02:29.547Z,65.46
2018-03-19T09:03:29.554Z,65.36
2018-03-19T09:04:29.560Z,65.17
2018-03-19T09:05:29.568Z,65.30
2018-03-19T09:06:29.577Z,64.83
2018-03-19T09:07:29.593Z,64.64
2018-03-19T09:08:29.599Z,64.17
2018-03-19T09:09:29.607Z,64.07
2018-03-19T09:10:29.615Z,63.89
2018-03-19T09:11:29.624Z,63.79
2018-03-19T09:12:29.631Z,63.70
2018-03-19T09:13:29.643Z,63.70
2018-03-19T09:14:29.652Z,63.89
2018-03-19T09:15:29.660Z,64.07
2018-03-19T09:16:29.673Z,63.89
2018-03-19T09:17:29.675Z,63.70
2018-03-19T09:18:29.685Z,63.23
2018-03-19T09:19:29.697Z,62.94
2018-03-19T09:20:29.706Z,63.23
2018-03-19T09:21:29.715Z,63.04
2018-03-19T09:22:29.724Z,62.85
2018-03-19T09:23:29.731Z,62.66
2018-03-19T09:24:29.737Z,62.66
2018-03-19T09:25:29.746Z,62.66
2018-03-19T09:26:29.760Z,62.28
2018-03-19T09:27:29.765Z,62.37
2018-03-19T09:28:29.777Z,63.23
2018-03-19T09:29:29.784Z,62.85
2018-03-19T09:30:29.794Z,61.80
2018-03-19T09:31:29.799Z,61.33
2018-03-19T09:32:29.808Z,60.77
2018-03-19T09:33:29.817Z,60.58
2018-03-19T09:34:29.826Z,59.82
2018-03-19T09:35:29.834Z,60.01
2018-03-19T09:36:29.847Z,59.92
2018-03-19T09:37:29.858Z,59.92
2018-03-19T09:38:29.863Z,59.82
2018-03-19T09:39:29.870Z,59.63
2018-03-19T09:40:29.880Z,60.20
2018-03-19T09:41:29.888Z,60.30
2018-03-19T09:42:29.898Z,60.01
2018-03-19T09:43:29.906Z,59.92
2018-03-19T09:44:29.915Z,60.01
2018-03-19T09:45:29.923Z,59.25
2018-03-19T09:46:29.932Z,59.25
2018-03-19T09:47:29.957Z,59.35
2018-03-19T09:48:29.951Z,59.47
2018-03-19T09:49:29.963Z,60.01
2018-03-19T09:50:29.978Z,59.92
2018-03-19T09:51:29.978Z,60.33
2018-03-19T09:52:29.989Z,60.04
2018-03-19T09:53:30.001Z,60.23
2018-03-19T09:54:30.008Z,60.14
2018-03-19T09:55:30.022Z,59.57
2018-03-19T09:56:30.039Z,59.19
2018-03-19T09:57:30.043Z,58.44
2018-03-19T09:58:30.056Z,58.25
2018-03-19T09:59:30.061Z,58.44
2018-03-19T10:00:30.070Z,59.28
2018-03-19T10:01:30.079Z,59.57
2018-03-19T10:02:30.091Z,59.28
2018-03-19T10:03:30.096Z,59.38
2018-03-19T10:04:30.104Z,59.28
2018-03-19T10:05:30.114Z,59.57
2018-03-19T10:06:30.127Z,59.28
2018-03-19T10:07:30.132Z,58.72
2018-03-19T10:08:30.140Z,59.19
2018-03-19T10:09:30.149Z,58.72
2018-03-19T10:10:30.171Z,58.44
2018-03-19T10:11:30.177Z,58.62
2018-03-19T10:12:30.175Z,58.81
2018-03-19T10:13:30.189Z,59.09
2018-03-19T10:14:30.198Z,59.57
2018-03-19T10:15:30.203Z,58.72
2018-03-19T10:16:30.224Z,58.25
2018-03-19T10:17:30.237Z,58.06
2018-03-19T10:18:30.242Z,58.15
2018-03-19T10:19:30.251Z,58.25
2018-03-19T10:20:30.266Z,58.62
2018-03-19T10:21:30.336Z,58.06
2018-03-19T10:22:30.278Z,58.25
2018-03-19T10:23:30.287Z,58.53
2018-03-19T10:24:30.299Z,59.19
2018-03-19T10:25:30.308Z,58.91
2018-03-19T10:26:30.315Z,58.72
2018-03-19T10:27:30.327Z,58.44
2018-03-19T10:28:30.334Z,58.34
2018-03-19T10:29:30.342Z,57.77
2018-03-19T10:30:30.362Z,57.58
2018-03-19T10:31:30.369Z,57.68
2018-03-19T10:32:30.378Z,57.49
2018-03-19T10:33:30.392Z,58.06
2018-03-19T10:34:30.400Z,57.87
2018-03-19T10:35:30.409Z,57.68
2018-03-19T10:36:30.414Z,57.58
2018-03-19T10:37:30.428Z,57.33
2018-03-19T10:38:30.432Z,57.77
2018-03-19T10:39:30.446Z,57.80
2018-03-19T10:40:30.450Z,57.68
2018-03-19T10:41:30.458Z,57.80
2018-03-19T10:42:30.470Z,57.52
2018-03-19T10:43:30.492Z,57.23
2018-03-19T10:44:30.563Z,57.71
2018-03-19T10:45:30.513Z,58.47
2018-03-19T10:46:30.517Z,57.71
2018-03-19T10:47:30.524Z,57.61
2018-03-19T10:48:30.540Z,57.71
2018-03-19T10:49:30.545Z,57.42
2018-03-19T10:50:30.556Z,57.14
2018-03-19T10:51:30.569Z,57.33
2018-03-19T10:52:30.584Z,57.42
2018-03-19T10:53:30.595Z,57.23
2018-03-19T10:54:30.599Z,56.85
2018-03-19T10:55:30.611Z,56.76
2018-03-19T10:56:30.617Z,56.76
2018-03-19T10:57:30.632Z,57.33
2018-03-19T10:58:30.634Z,56.95
2018-03-19T10:59:30.644Z,56.95
2018-03-19T11:00:30.652Z,56.95
2018-03-19T11:01:30.663Z,56.76
2018-03-19T11:02:30.685Z,57.71
2018-03-19T11:03:30.696Z,57.33
2018-03-19T11:04:30.705Z,57.14
2018-03-19T11:05:30.714Z,56.67
2018-03-19T11:06:30.720Z,56.57
2018-03-19T11:07:30.728Z,56.95
2018-03-19T11:08:30.736Z,56.95
2018-03-19T11:09:30.751Z,56.76
2018-03-19T11:10:30.767Z,56.95
2018-03-19T11:11:30.775Z,56.48
2018-03-19T11:12:30.787Z,55.82
2018-03-19T11:13:30.793Z,55.25
2018-03-19T11:14:30.805Z,54.96
2018-03-19T11:15:30.815Z,55.15
2018-03-19T11:16:30.824Z,54.96
2018-03-19T11:17:30.865Z,54.96
2018-03-19T11:18:30.850Z,54.77
2018-03-19T11:19:30.859Z,54.11
2018-03-19T11:20:30.873Z,53.83
2018-03-19T11:21:30.876Z,53.74
2018-03-19T11:22:30.889Z,53.83
2018-03-19T11:23:30.898Z,54.77
2018-03-19T11:24:30.905Z,54.58
2018-03-19T11:25:30.917Z,54.68
2018-03-19T11:26:30.934Z,54.77
2018-03-19T11:27:30.945Z,55.34
2018-03-19T11:28:30.966Z,55.15
2018-03-19T11:29:30.961Z,55.56
2018-03-19T11:30:30.974Z,55.27
2018-03-19T11:31:30.978Z,54.99
2018-03-19T11:32:31.001Z,54.71
2018-03-19T11:33:31.013Z,54.58
2018-03-19T11:34:31.021Z,54.61
2018-03-19T11:35:31.029Z,54.71
2018-03-19T11:36:31.041Z,54.71
2018-03-19T11:37:31.044Z,54.71
2018-03-19T11:38:31.056Z,54.14
2018-03-19T11:39:31.075Z,54.14
2018-03-19T11:40:31.083Z,54.23
2018-03-19T11:41:31.092Z,54.99
2018-03-19T11:42:31.101Z,54.90
2018-03-19T11:43:31.113Z,55.65
2018-03-19T11:44:31.119Z,55.08
2018-03-19T11:45:31.141Z,54.71
2018-03-19T11:46:31.150Z,54.23
2018-03-19T11:47:31.161Z,54.80
2018-03-19T11:48:31.170Z,54.23
2018-03-19T11:49:31.203Z,53.85
2018-03-19T11:50:31.190Z,53.76
2018-03-19T11:51:31.206Z,53.85
2018-03-19T11:52:31.218Z,53.38
2018-03-19T11:53:31.226Z,53.57
2018-03-19T11:54:31.233Z,52.72
2018-03-19T11:55:31.246Z,52.25
2018-03-19T11:56:31.259Z,52.34
2018-03-19T11:57:31.286Z,52.44
2018-03-19T11:58:31.285Z,52.44
2018-03-19T11:59:31.290Z,52.72
2018-03-19T12:00:31.303Z,53.38
2018-03-19T12:01:31.308Z,53.76
2018-03-19T12:02:31.318Z,53.85
2018-03-19T12:03:31.337Z,53.76
2018-03-19T12:04:31.346Z,53.38
2018-03-19T12:05:31.356Z,53.57
2018-03-19T12:06:31.372Z,53.57
2018-03-19T12:07:31.374Z,52.72
2018-03-19T12:08:31.384Z,52.53
2018-03-19T12:09:31.403Z,51.77
2018-03-19T12:10:31.417Z,51.30
2018-03-19T12:11:31.433Z,51.49
2018-03-19T12:12:31.432Z,51.49
2018-03-19T12:13:31.438Z,51.30
2018-03-19T12:14:31.460Z,51.30
2018-03-19T12:15:31.474Z,51.20
2018-03-19T12:16:31.482Z,50.63
2018-03-19T12:17:31.487Z,50.63
2018-03-19T12:18:31.495Z,50.63
2018-03-19T12:19:31.518Z,50.82
2018-03-19T12:20:31.530Z,50.63
2018-03-19T12:21:31.536Z,50.73
2018-03-19T12:22:31.543Z,51.11
2018-03-19T12:23:31.554Z,51.30
2018-03-19T12:24:31.563Z,52.06
2018-03-19T12:25:31.583Z,52.44
2018-03-19T12:26:31.594Z,52.25
2018-03-19T12:27:31.609Z,51.99
2018-03-19T12:28:31.622Z,51.89
2018-03-19T12:29:31.623Z,52.56
2018-03-19T12:30:31.641Z,52.27
2018-03-19T12:31:31.650Z,51.70
2018-03-19T12:32:31.658Z,51.61
2018-03-19T12:33:31.666Z,51.80
2018-03-19T12:34:31.677Z,51.80
2018-03-19T12:35:31.697Z,51.70
2018-03-19T12:36:31.718Z,51.70
2018-03-19T12:37:31.715Z,52.56
2018-03-19T12:38:31.723Z,52.08
2018-03-19T12:39:31.736Z,52.27
2018-03-19T12:40:31.758Z,52.08
2018-03-19T12:41:31.763Z,52.08
2018-03-19T12:42:31.771Z,51.80
2018-03-19T12:43:31.781Z,52.18
2018-03-19T12:44:31.791Z,51.89
2018-03-19T12:45:31.815Z,51.89
2018-03-19T12:46:31.822Z,52.08
2018-03-19T12:47:31.830Z,51.99
2018-03-19T12:48:31.837Z,52.08
2018-03-19T12:49:31.860Z,52.46
2018-03-19T12:50:31.868Z,52.46
2018-03-19T12:51:31.880Z,52.08
2018-03-19T12:52:31.890Z,51.70